Time,TemperatureF,DewpointF,PressureIn,WindDirection,WindDirectionDegrees,WindSpeedMPH,WindSpeedGustMPH,Humidity,HourlyPrecipIn,Conditions,Clouds,dailyrainin,SoftwareType,DateUTC
2013-04-14 00:00:00,48.9,39.2,29.86,WNW,291,0.0,1.0,69,0.00,,,0.00,meteohub,2013-04-14 07:00:00,
2013-04-14 00:06:00,48.7,39.4,29.85,WNW,290,0.0,0.0,70,0.00,,,0.00,meteohub,2013-04-14 07:06:00,
2013-04-14 00:11:00,48.6,39.2,29.85,WNW,291,0.0,1.0,70,0.00,,,0.00,meteohub,2013-04-14 07:11:00,
2013-04-14 00:16:00,48.4,39.4,29.85,WNW,291,0.0,1.0,71,0.00,,,0.00,meteohub,2013-04-14 07:16:00,
2013-04-14 00:21:00,48.2,39.6,29.85,WNW,291,1.0,1.0,72,0.00,,,0.00,meteohub,2013-04-14 07:21:00,
2013-04-14 00:26:00,48.0,39.4,29.85,WNW,294,0.0,1.0,72,0.00,,,0.00,meteohub,2013-04-14 07:26:00,
2013-04-14 00:31:00,47.8,39.2,29.85,WNW,290,0.0,1.0,72,0.00,,,0.00,meteohub,2013-04-14 07:31:00,
2013-04-14 00:36:00,47.7,39.4,29.85,WNW,290,1.0,1.0,73,0.00,,,0.00,meteohub,2013-04-14 07:36:00,
2013-04-14 00:41:00,47.5,39.2,29.85,WNW,290,0.0,2.0,73,0.00,,,0.00,meteohub,2013-04-14 07:41:00,
2013-04-14 00:46:00,47.1,38.8,29.85,WNW,290,0.0,2.0,73,0.00,,,0.00,meteohub,2013-04-14 07:46:00,
2013-04-14 00:51:00,46.9,38.7,29.85,WNW,290,0.0,0.0,73,0.00,,,0.00,meteohub,2013-04-14 07:51:00,
2013-04-14 00:56:00,46.8,38.8,29.85,WNW,290,0.0,1.0,74,0.00,,,0.00,meteohub,2013-04-14 07:56:00,
2013-04-14 01:01:00,46.9,38.7,29.85,WNW,288,1.0,1.0,73,0.00,,,0.00,meteohub,2013-04-14 08:01:00,
2013-04-14 01:06:00,46.9,38.7,29.85,West,281,1.0,2.0,73,0.00,,,0.00,meteohub,2013-04-14 08:06:00,
2013-04-14 01:11:00,46.9,38.7,29.85,West,280,0.0,2.0,73,0.00,,,0.00,meteohub,2013-04-14 08:11:00,
2013-04-14 01:17:00,46.8,38.5,29.85,West,279,0.0,2.0,73,0.00,,,0.00,meteohub,2013-04-14 08:17:00,
2013-04-14 01:22:00,46.6,38.5,29.85,West,279,0.0,2.0,73,0.00,,,0.00,meteohub,2013-04-14 08:22:00,
2013-04-14 01:27:00,46.2,38.5,29.85,West,279,0.0,1.0,74,0.00,,,0.00,meteohub,2013-04-14 08:27:00,
2013-04-14 01:32:00,46.0,38.5,29.85,West,279,0.0,1.0,75,0.00,,,0.00,meteohub,2013-04-14 08:32:00,
2013-04-14 01:37:00,45.9,38.3,29.85,West,280,0.0,0.0,75,0.00,,,0.00,meteohub,2013-04-14 08:37:00,
2013-04-14 01:42:00,45.7,38.3,29.85,West,280,0.0,1.0,75,0.00,,,0.00,meteohub,2013-04-14 08:42:00,
2013-04-14 01:47:00,45.9,38.7,29.85,West,267,1.0,1.0,76,0.00,,,0.00,meteohub,2013-04-14 08:47:00,
2013-04-14 01:52:00,45.7,38.5,29.86,West,267,0.0,1.0,76,0.00,,,0.00,meteohub,2013-04-14 08:52:00,
2013-04-14 01:57:00,45.7,38.5,29.86,West,268,0.0,1.0,76,0.00,,,0.00,meteohub,2013-04-14 08:57:00,
2013-04-14 02:02:00,45.3,38.1,29.86,West,268,0.0,1.0,76,0.00,,,0.00,meteohub,2013-04-14 09:02:00,
2013-04-14 02:08:00,45.1,37.9,29.85,West,267,0.0,2.0,76,0.00,,,0.00,meteohub,2013-04-14 09:08:00,
2013-04-14 02:13:00,44.8,37.8,29.85,West,267,0.0,2.0,76,0.00,,,0.00,meteohub,2013-04-14 09:13:00,
2013-04-14 02:18:00,45.0,38.1,29.85,West,267,1.0,1.0,77,0.00,,,0.00,meteohub,2013-04-14 09:18:00,
2013-04-14 02:23:00,45.1,37.9,29.85,West,268,1.0,1.0,76,0.00,,,0.00,meteohub,2013-04-14 09:23:00,
2013-04-14 02:28:00,45.1,37.8,29.85,SW,232,0.0,1.0,75,0.00,,,0.00,meteohub,2013-04-14 09:28:00,
2013-04-14 02:33:00,45.1,37.4,29.85,SW,232,0.0,1.0,74,0.00,,,0.00,meteohub,2013-04-14 09:33:00,
2013-04-14 02:38:00,45.0,37.6,29.85,SW,232,0.0,2.0,75,0.00,,,0.00,meteohub,2013-04-14 09:38:00,
2013-04-14 02:43:00,44.8,37.4,29.85,SW,232,0.0,2.0,75,0.00,,,0.00,meteohub,2013-04-14 09:43:00,
2013-04-14 02:48:00,44.6,37.8,29.85,SSW,194,0.0,2.0,77,0.00,,,0.00,meteohub,2013-04-14 09:48:00,
2013-04-14 02:53:00,44.6,37.8,29.85,SSW,194,0.0,2.0,77,0.00,,,0.00,meteohub,2013-04-14 09:53:00,
2013-04-14 02:58:00,44.4,37.6,29.85,SSW,194,0.0,2.0,77,0.00,,,0.00,meteohub,2013-04-14 09:58:00,
2013-04-14 03:03:00,44.2,37.8,29.85,SSW,194,0.0,2.0,78,0.00,,,0.00,meteohub,2013-04-14 10:03:00,
2013-04-14 03:08:00,44.2,37.8,29.85,SE,146,1.0,1.0,78,0.00,,,0.00,meteohub,2013-04-14 10:08:00,
2013-04-14 03:13:00,44.4,37.9,29.85,SE,146,0.0,1.0,78,0.00,,,0.00,meteohub,2013-04-14 10:13:00,
2013-04-14 03:18:00,44.2,37.8,29.85,SE,146,0.0,1.0,78,0.00,,,0.00,meteohub,2013-04-14 10:18:00,
2013-04-14 03:23:00,44.1,37.6,29.85,SE,146,0.0,1.0,78,0.00,,,0.00,meteohub,2013-04-14 10:23:00,
2013-04-14 03:29:00,43.9,37.8,29.85,SW,221,0.0,1.0,79,0.00,,,0.00,meteohub,2013-04-14 10:29:00,
2013-04-14 03:34:00,43.9,37.8,29.85,SW,221,0.0,1.0,79,0.00,,,0.00,meteohub,2013-04-14 10:34:00,
2013-04-14 03:39:00,44.1,37.9,29.85,SSE,163,2.0,2.0,79,0.00,,,0.00,meteohub,2013-04-14 10:39:00,
2013-04-14 03:44:00,43.9,37.8,29.85,SW,221,0.0,1.0,79,0.00,,,0.00,meteohub,2013-04-14 10:44:00,
2013-04-14 03:49:00,43.7,37.6,29.85,SW,219,0.0,1.0,79,0.00,,,0.00,meteohub,2013-04-14 10:49:00,
2013-04-14 03:54:00,43.5,37.4,29.86,WNW,287,1.0,1.0,79,0.00,,,0.00,meteohub,2013-04-14 10:54:00,
2013-04-14 03:59:00,43.3,37.2,29.86,WNW,286,0.0,2.0,79,0.00,,,0.00,meteohub,2013-04-14 10:59:00,
2013-04-14 04:04:00,43.2,37.4,29.86,WNW,286,0.0,2.0,80,0.00,,,0.00,meteohub,2013-04-14 11:04:00,
2013-04-14 04:09:00,43.2,37.4,29.86,WSW,256,0.0,2.0,80,0.00,,,0.00,meteohub,2013-04-14 11:09:00,
2013-04-14 04:14:00,43.0,37.2,29.86,WSW,256,0.0,1.0,80,0.00,,,0.00,meteohub,2013-04-14 11:14:00,
2013-04-14 04:19:00,43.0,37.2,29.86,WSW,256,0.0,1.0,80,0.00,,,0.00,meteohub,2013-04-14 11:19:00,
2013-04-14 04:24:00,43.0,37.2,29.86,WSW,256,0.0,2.0,80,0.00,,,0.00,meteohub,2013-04-14 11:24:00,
2013-04-14 04:29:00,43.0,37.6,29.86,NNW,348,0.0,2.0,81,0.00,,,0.00,meteohub,2013-04-14 11:29:00,
2013-04-14 04:34:00,43.2,37.0,29.86,NNE,16,3.0,3.0,79,0.00,,,0.00,meteohub,2013-04-14 11:34:00,
2013-04-14 04:39:00,44.2,36.9,29.86,SW,225,0.0,2.0,75,0.00,,,0.00,meteohub,2013-04-14 11:39:00,
2013-04-14 04:44:00,44.6,36.5,29.86,WNW,286,1.0,1.0,73,0.00,,,0.00,meteohub,2013-04-14 11:44:00,
2013-04-14 04:49:00,45.5,36.3,29.86,WNW,291,0.0,1.0,70,0.00,,,0.00,meteohub,2013-04-14 11:49:00,
2013-04-14 04:54:00,45.9,36.3,29.86,North,351,2.0,2.0,69,0.00,,,0.00,meteohub,2013-04-14 11:54:00,
2013-04-14 04:59:00,46.0,36.5,29.86,NW,326,1.0,1.0,69,0.00,,,0.00,meteohub,2013-04-14 11:59:00,
2013-04-14 05:04:00,46.0,36.1,29.86,North,350,1.0,1.0,68,0.00,,,0.00,meteohub,2013-04-14 12:04:00,
2013-04-14 05:09:00,45.9,36.0,29.85,NNE,16,0.0,1.0,68,0.00,,,0.00,meteohub,2013-04-14 12:09:00,
2013-04-14 05:15:00,45.9,36.0,29.85,NNE,22,0.0,1.0,68,0.00,,,0.00,meteohub,2013-04-14 12:15:00,
2013-04-14 05:20:00,45.3,36.1,29.85,NNE,19,1.0,1.0,70,0.00,,,0.00,meteohub,2013-04-14 12:20:00,
2013-04-14 05:25:00,45.0,36.5,29.85,SSW,205,0.0,1.0,72,0.00,,,0.00,meteohub,2013-04-14 12:25:00,
2013-04-14 05:30:00,44.4,36.0,29.85,SSW,211,1.0,0.0,72,0.00,,,0.00,meteohub,2013-04-14 12:30:00,
2013-04-14 05:35:00,44.4,36.0,29.85,SW,223,0.0,1.0,72,0.00,,,0.00,meteohub,2013-04-14 12:35:00,
2013-04-14 05:40:00,44.1,36.0,29.85,SW,223,1.0,1.0,73,0.00,,,0.00,meteohub,2013-04-14 12:40:00,
2013-04-14 05:45:00,43.9,36.1,29.85,SW,218,0.0,1.0,74,0.00,,,0.00,meteohub,2013-04-14 12:45:00,
2013-04-14 05:50:00,43.5,35.8,29.85,SW,218,0.0,1.0,74,0.00,,,0.00,meteohub,2013-04-14 12:50:00,
2013-04-14 05:56:00,43.2,35.8,29.85,SW,218,0.0,1.0,75,0.00,,,0.00,meteohub,2013-04-14 12:56:00,
2013-04-14 06:01:00,43.0,36.0,29.85,SW,218,0.0,1.0,76,0.00,,,0.00,meteohub,2013-04-14 13:01:00,
2013-04-14 06:06:00,42.6,35.6,29.85,SW,218,0.0,2.0,76,0.00,,,0.00,meteohub,2013-04-14 13:06:00,
2013-04-14 06:11:00,42.4,35.8,29.85,SW,218,0.0,2.0,77,0.00,,,0.00,meteohub,2013-04-14 13:11:00,
2013-04-14 06:17:00,42.3,36.1,29.85,SW,219,0.0,1.0,79,0.00,,,0.00,meteohub,2013-04-14 13:17:00,
2013-04-14 06:22:00,42.3,36.0,29.86,SW,218,0.0,1.0,78,0.00,,,0.00,meteohub,2013-04-14 13:22:00,
2013-04-14 06:27:00,42.1,36.0,29.86,SSW,200,0.0,1.0,79,0.00,,,0.00,meteohub,2013-04-14 13:27:00,
2013-04-14 06:32:00,41.9,36.1,29.86,SSW,200,0.0,1.0,80,0.00,,,0.00,meteohub,2013-04-14 13:32:00,
2013-04-14 06:37:00,41.5,35.8,29.86,SSW,200,0.0,1.0,80,0.00,,,0.00,meteohub,2013-04-14 13:37:00,
2013-04-14 06:42:00,41.4,36.0,29.86,SSW,200,0.0,1.0,81,0.00,,,0.00,meteohub,2013-04-14 13:42:00,
2013-04-14 06:47:00,41.4,36.3,29.86,SSW,200,0.0,0.0,82,0.00,,,0.00,meteohub,2013-04-14 13:47:00,
2013-04-14 06:52:00,41.4,36.3,29.86,SSW,200,0.0,0.0,82,0.00,,,0.00,meteohub,2013-04-14 13:52:00,
2013-04-14 06:57:00,41.2,36.1,29.86,SSW,200,0.0,0.0,82,0.00,,,0.00,meteohub,2013-04-14 13:57:00,
2013-04-14 07:02:00,41.2,36.1,29.86,SSW,200,0.0,0.0,82,0.00,,,0.00,meteohub,2013-04-14 14:02:00,
2013-04-14 07:07:00,41.2,36.5,29.87,SSW,200,0.0,0.0,83,0.00,,,0.00,meteohub,2013-04-14 14:07:00,
2013-04-14 07:12:00,40.8,36.1,29.87,SSW,200,0.0,0.0,83,0.00,,,0.00,meteohub,2013-04-14 14:12:00,
2013-04-14 07:17:00,40.8,36.1,29.87,SSW,200,0.0,0.0,83,0.00,,,0.00,meteohub,2013-04-14 14:17:00,
2013-04-14 07:22:00,41.7,37.2,29.88,SSW,200,0.0,0.0,84,0.00,,,0.00,meteohub,2013-04-14 14:22:00,
2013-04-14 07:27:00,42.6,37.2,29.88,SSW,200,0.0,0.0,81,0.00,,,0.00,meteohub,2013-04-14 14:27:00,
2013-04-14 07:33:00,43.2,36.7,29.88,SSW,200,0.0,0.0,78,0.00,,,0.00,meteohub,2013-04-14 14:33:00,
2013-04-14 07:38:00,44.2,38.1,29.88,SSW,200,0.0,0.0,79,0.00,,,0.00,meteohub,2013-04-14 14:38:00,
2013-04-14 07:43:00,45.1,37.8,29.88,SSW,202,0.0,0.0,75,0.00,,,0.00,meteohub,2013-04-14 14:43:00,
2013-04-14 07:48:00,45.9,37.4,29.88,SSW,202,0.0,0.0,72,0.00,,,0.00,meteohub,2013-04-14 14:48:00,
2013-04-14 07:53:00,46.8,37.6,29.87,SSW,202,1.0,0.0,70,0.00,,,0.00,meteohub,2013-04-14 14:53:00,
2013-04-14 07:58:00,47.1,36.7,29.87,West,268,1.0,1.0,67,0.00,,,0.00,meteohub,2013-04-14 14:58:00,
2013-04-14 08:03:00,47.5,36.7,29.87,West,264,1.0,2.0,66,0.00,,,0.00,meteohub,2013-04-14 15:03:00,
2013-04-14 08:08:00,48.4,36.0,29.87,WNW,284,2.0,2.0,62,0.00,,,0.00,meteohub,2013-04-14 15:08:00,
2013-04-14 08:13:00,48.9,35.6,29.87,WSW,252,0.0,2.0,60,0.00,,,0.00,meteohub,2013-04-14 15:13:00,
2013-04-14 08:19:00,49.6,35.4,29.87,West,281,2.0,3.0,58,0.00,,,0.00,meteohub,2013-04-14 15:19:00,
2013-04-14 08:24:00,49.8,35.2,29.87,NW,313,2.0,4.0,57,0.00,,,0.00,meteohub,2013-04-14 15:24:00,
2013-04-14 08:29:00,50.0,35.4,29.87,West,276,1.0,4.0,57,0.00,,,0.00,meteohub,2013-04-14 15:29:00,
2013-04-14 08:34:00,50.4,35.2,29.87,NNW,340,1.0,4.0,56,0.00,,,0.00,meteohub,2013-04-14 15:34:00,
2013-04-14 08:39:00,50.7,35.1,29.87,NNW,334,0.0,3.0,55,0.00,,,0.00,meteohub,2013-04-14 15:39:00,
2013-04-14 08:44:00,51.1,35.1,29.87,NNW,332,4.0,5.0,54,0.00,,,0.00,meteohub,2013-04-14 15:44:00,
2013-04-14 08:49:00,51.4,34.9,29.87,WNW,291,4.0,5.0,53,0.00,,,0.00,meteohub,2013-04-14 15:49:00,
2013-04-14 08:54:00,51.6,34.5,29.88,West,267,5.0,7.0,52,0.00,,,0.00,meteohub,2013-04-14 15:54:00,
2013-04-14 08:59:00,51.8,34.2,29.88,NW,305,4.0,7.0,51,0.00,,,0.00,meteohub,2013-04-14 15:59:00,
2013-04-14 09:04:00,52.3,34.7,29.88,NW,304,2.0,6.0,51,0.00,,,0.00,meteohub,2013-04-14 16:04:00,
2013-04-14 09:09:00,52.9,34.7,29.87,North,349,1.0,6.0,50,0.00,,,0.00,meteohub,2013-04-14 16:09:00,
2013-04-14 09:15:00,53.1,34.3,29.87,WNW,298,4.0,7.0,49,0.00,,,0.00,meteohub,2013-04-14 16:15:00,
2013-04-14 09:20:00,53.4,34.2,29.87,West,280,2.0,9.0,48,0.00,,,0.00,meteohub,2013-04-14 16:20:00,
2013-04-14 09:25:00,53.8,34.5,29.88,West,279,4.0,9.0,48,0.00,,,0.00,meteohub,2013-04-14 16:25:00,
2013-04-14 09:30:00,54.1,34.3,29.88,West,281,4.0,7.0,47,0.00,,,0.00,meteohub,2013-04-14 16:30:00,
2013-04-14 09:35:00,54.1,33.8,29.88,NW,308,3.0,6.0,46,0.00,,,0.00,meteohub,2013-04-14 16:35:00,
2013-04-14 09:40:00,54.7,34.3,29.88,NNW,346,5.0,10.0,46,0.00,,,0.00,meteohub,2013-04-14 16:40:00,
2013-04-14 09:45:00,55.0,32.9,29.88,NE,39,3.0,10.0,43,0.00,,,0.00,meteohub,2013-04-14 16:45:00,
2013-04-14 09:51:00,55.2,33.6,29.87,North,11,4.0,10.0,44,0.00,,,0.00,meteohub,2013-04-14 16:51:00,
2013-04-14 09:56:00,55.8,32.4,29.87,West,277,6.0,10.0,41,0.00,,,0.00,meteohub,2013-04-14 16:56:00,
2013-04-14 10:01:00,55.8,33.1,29.87,WNW,287,1.0,10.0,42,0.00,,,0.00,meteohub,2013-04-14 17:01:00,
2013-04-14 10:06:00,56.5,32.4,29.87,West,263,4.0,10.0,40,0.00,,,0.00,meteohub,2013-04-14 17:06:00,
2013-04-14 10:11:00,56.8,32.2,29.87,West,267,4.0,10.0,39,0.00,,,0.00,meteohub,2013-04-14 17:11:00,
2013-04-14 10:16:00,57.6,32.7,29.87,WNW,284,4.0,10.0,39,0.00,,,0.00,meteohub,2013-04-14 17:16:00,
2013-04-14 10:21:00,57.9,32.5,29.87,WNW,283,3.0,7.0,38,0.00,,,0.00,meteohub,2013-04-14 17:21:00,
2013-04-14 10:26:00,58.6,33.1,29.87,NNW,328,4.0,7.0,38,0.00,,,0.00,meteohub,2013-04-14 17:26:00,
2013-04-14 10:31:00,58.8,32.5,29.87,NW,309,9.0,9.0,37,0.00,,,0.00,meteohub,2013-04-14 17:31:00,
2013-04-14 10:37:00,59.0,32.7,29.86,WNW,288,2.0,10.0,37,0.00,,,0.00,meteohub,2013-04-14 17:37:00,
2013-04-14 10:42:00,59.2,31.5,29.86,West,280,3.0,10.0,35,0.00,,,0.00,meteohub,2013-04-14 17:42:00,
2013-04-14 10:47:00,59.5,31.8,29.86,NNE,17,4.0,10.0,35,0.00,,,0.00,meteohub,2013-04-14 17:47:00,
2013-04-14 10:52:00,59.7,32.0,29.87,WSW,242,1.0,10.0,35,0.00,,,0.00,meteohub,2013-04-14 17:52:00,
2013-04-14 10:57:00,60.4,32.7,29.87,WSW,252,2.0,10.0,35,0.00,,,0.00,meteohub,2013-04-14 17:57:00,
2013-04-14 11:02:00,60.8,32.9,29.87,NNE,17,2.0,10.0,35,0.00,,,0.00,meteohub,2013-04-14 18:02:00,
2013-04-14 11:07:00,61.9,33.3,29.86,NNE,24,2.0,7.0,34,0.00,,,0.00,meteohub,2013-04-14 18:07:00,
2013-04-14 11:13:00,62.2,32.7,29.86,West,264,4.0,7.0,33,0.00,,,0.00,meteohub,2013-04-14 18:13:00,
2013-04-14 11:18:00,62.8,31.6,29.86,NNW,330,5.0,5.0,31,0.00,,,0.00,meteohub,2013-04-14 18:18:00,
2013-04-14 11:23:00,62.6,31.5,29.86,NNE,26,4.0,9.0,31,0.00,,,0.00,meteohub,2013-04-14 18:23:00,
2013-04-14 11:28:00,63.0,31.1,29.86,NW,307,7.0,9.0,30,0.00,,,0.00,meteohub,2013-04-14 18:28:00,
2013-04-14 11:33:00,63.7,31.6,29.86,WNW,294,2.0,10.0,30,0.00,,,0.00,meteohub,2013-04-14 18:33:00,
2013-04-14 11:38:00,63.9,31.8,29.86,NNW,327,5.0,9.0,30,0.00,,,0.00,meteohub,2013-04-14 18:38:00,
2013-04-14 11:43:00,64.9,32.0,29.86,WNW,291,4.0,9.0,29,0.00,,,0.00,meteohub,2013-04-14 18:43:00,
2013-04-14 11:48:00,64.9,31.1,29.86,NE,39,4.0,9.0,28,0.00,,,0.00,meteohub,2013-04-14 18:48:00,
2013-04-14 11:53:00,64.9,31.1,29.85,SW,214,2.0,7.0,28,0.00,,,0.00,meteohub,2013-04-14 18:53:00,
2013-04-14 11:59:00,65.5,31.5,29.85,WSW,245,3.0,7.0,28,0.00,,,0.00,meteohub,2013-04-14 18:59:00,
2013-04-14 12:04:00,66.4,31.5,29.85,WNW,287,9.0,9.0,27,0.00,,,0.00,meteohub,2013-04-14 19:04:00,
2013-04-14 12:09:00,66.7,32.5,29.84,NW,306,3.0,10.0,28,0.00,,,0.00,meteohub,2013-04-14 19:09:00,
2013-04-14 12:14:00,67.3,33.1,29.84,NW,317,6.0,12.0,28,0.00,,,0.00,meteohub,2013-04-14 19:14:00,
2013-04-14 12:19:00,68.0,33.6,29.84,West,259,10.0,12.0,28,0.00,,,0.00,meteohub,2013-04-14 19:19:00,
2013-04-14 12:24:00,68.2,33.8,29.83,WNW,298,9.0,12.0,28,0.00,,,0.00,meteohub,2013-04-14 19:24:00,
2013-04-14 12:29:00,68.7,34.3,29.83,WNW,286,4.0,12.0,28,0.00,,,0.00,meteohub,2013-04-14 19:29:00,
2013-04-14 12:34:00,69.1,35.4,29.83,WSW,246,13.0,14.0,29,0.00,,,0.00,meteohub,2013-04-14 19:34:00,
2013-04-14 12:39:00,69.4,34.9,29.82,WSW,242,5.0,14.0,28,0.00,,,0.00,meteohub,2013-04-14 19:39:00,
2013-04-14 12:44:00,69.4,35.8,29.82,West,281,7.0,17.0,29,0.00,,,0.00,meteohub,2013-04-14 19:44:00,
2013-04-14 12:49:00,70.2,36.5,29.82,NW,326,5.0,17.0,29,0.00,,,0.00,meteohub,2013-04-14 19:49:00,
2013-04-14 12:54:00,70.5,37.6,29.82,WNW,295,4.0,14.0,30,0.00,,,0.00,meteohub,2013-04-14 19:54:00,
2013-04-14 12:59:00,70.5,37.6,29.82,WNW,292,11.0,14.0,30,0.00,,,0.00,meteohub,2013-04-14 19:59:00,
2013-04-14 13:04:00,70.5,37.6,29.82,NW,309,10.0,14.0,30,0.00,,,0.00,meteohub,2013-04-14 20:04:00,
2013-04-14 13:10:00,71.1,39.7,29.81,WNW,292,6.0,21.0,32,0.00,,,0.00,meteohub,2013-04-14 20:10:00,
2013-04-14 13:15:00,70.5,38.5,29.81,WNW,283,12.0,21.0,31,0.00,,,0.00,meteohub,2013-04-14 20:15:00,
2013-04-14 13:20:00,70.9,39.6,29.81,WNW,290,7.0,21.0,32,0.00,,,0.00,meteohub,2013-04-14 20:20:00,
2013-04-14 13:25:00,70.7,39.4,29.81,WNW,286,9.0,21.0,32,0.00,,,0.00,meteohub,2013-04-14 20:25:00,
2013-04-14 13:30:00,71.1,40.5,29.81,NW,309,9.0,19.0,33,0.00,,,0.00,meteohub,2013-04-14 20:30:00,
2013-04-14 13:35:00,71.2,40.6,29.81,WNW,298,14.0,21.0,33,0.00,,,0.00,meteohub,2013-04-14 20:35:00,
2013-04-14 13:40:00,70.7,41.7,29.81,WNW,286,5.0,21.0,35,0.00,,,0.00,meteohub,2013-04-14 20:40:00,
2013-04-14 13:46:00,70.5,41.5,29.81,WNW,290,10.0,21.0,35,0.00,,,0.00,meteohub,2013-04-14 20:46:00,
2013-04-14 13:51:00,70.2,40.5,29.81,WNW,287,6.0,31.0,34,0.00,,,0.00,meteohub,2013-04-14 20:51:00,
2013-04-14 13:56:00,70.3,41.4,29.81,West,271,9.0,31.0,35,0.00,,,0.00,meteohub,2013-04-14 20:56:00,
2013-04-14 14:01:00,70.3,40.6,29.81,WNW,291,13.0,26.0,34,0.00,,,0.00,meteohub,2013-04-14 21:01:00,
2013-04-14 14:06:00,70.9,41.2,29.81,West,280,5.0,20.0,34,0.00,,,0.00,meteohub,2013-04-14 21:06:00,
2013-04-14 14:11:00,70.7,41.0,29.81,NW,305,16.0,30.0,34,0.00,,,0.00,meteohub,2013-04-14 21:11:00,
2013-04-14 14:16:00,70.2,41.2,29.81,NW,307,9.0,30.0,35,0.00,,,0.00,meteohub,2013-04-14 21:16:00,
2013-04-14 14:21:00,70.2,41.9,29.81,WNW,295,12.0,24.0,36,0.00,,,0.00,meteohub,2013-04-14 21:21:00,
2013-04-14 14:26:00,70.3,42.1,29.81,NNW,342,9.0,31.0,36,0.00,,,0.00,meteohub,2013-04-14 21:26:00,
2013-04-14 14:31:00,70.5,42.3,29.81,NE,51,16.0,31.0,36,0.00,,,0.00,meteohub,2013-04-14 21:31:00,
2013-04-14 14:36:00,70.9,41.9,29.80,NNW,329,9.0,31.0,35,0.00,,,0.00,meteohub,2013-04-14 21:36:00,
2013-04-14 14:41:00,70.9,42.6,29.80,WNW,303,10.0,24.0,36,0.00,,,0.00,meteohub,2013-04-14 21:41:00,
2013-04-14 14:46:00,71.1,42.8,29.80,WNW,284,11.0,20.0,36,0.00,,,0.00,meteohub,2013-04-14 21:46:00,
2013-04-14 14:52:00,70.9,43.3,29.80,WNW,303,7.0,21.0,37,0.00,,,0.00,meteohub,2013-04-14 21:52:00,
2013-04-14 14:57:00,70.7,43.2,29.80,NW,307,10.0,21.0,37,0.00,,,0.00,meteohub,2013-04-14 21:57:00,
2013-04-14 15:02:00,70.9,43.3,29.80,NW,317,11.0,19.0,37,0.00,,,0.00,meteohub,2013-04-14 22:02:00,
2013-04-14 15:08:00,70.7,43.2,29.80,NW,324,11.0,19.0,37,0.00,,,0.00,meteohub,2013-04-14 22:08:00,
2013-04-14 15:13:00,70.9,44.1,29.80,WNW,284,6.0,20.0,38,0.00,,,0.00,meteohub,2013-04-14 22:13:00,
2013-04-14 15:18:00,70.7,43.9,29.80,SSW,209,7.0,20.0,38,0.00,,,0.00,meteohub,2013-04-14 22:18:00,
2013-04-14 15:23:00,71.1,43.5,29.80,West,280,10.0,17.0,37,0.00,,,0.00,meteohub,2013-04-14 22:23:00,
2013-04-14 15:28:00,71.2,44.2,29.80,NW,306,6.0,17.0,38,0.00,,,0.00,meteohub,2013-04-14 22:28:00,
2013-04-14 15:33:00,71.1,44.2,29.80,WNW,288,10.0,17.0,38,0.00,,,0.00,meteohub,2013-04-14 22:33:00,
2013-04-14 15:38:00,70.3,43.5,29.79,WSW,249,7.0,21.0,38,0.00,,,0.00,meteohub,2013-04-14 22:38:00,
2013-04-14 15:43:00,70.0,43.9,29.79,SSW,206,7.0,21.0,39,0.00,,,0.00,meteohub,2013-04-14 22:43:00,
2013-04-14 15:48:00,70.0,44.6,29.79,WNW,297,4.0,19.0,40,0.00,,,0.00,meteohub,2013-04-14 22:48:00,
2013-04-14 15:53:00,70.0,45.1,29.79,West,277,5.0,19.0,41,0.00,,,0.00,meteohub,2013-04-14 22:53:00,
2013-04-14 15:58:00,69.4,44.8,29.79,WNW,285,4.0,19.0,41,0.00,,,0.00,meteohub,2013-04-14 22:58:00,
2013-04-14 16:03:00,69.6,45.0,29.79,WNW,285,6.0,22.0,41,0.00,,,0.00,meteohub,2013-04-14 23:03:00,
2013-04-14 16:08:00,69.1,45.0,29.78,NNW,340,6.0,22.0,42,0.00,,,0.00,meteohub,2013-04-14 23:08:00,
2013-04-14 16:13:00,68.7,44.8,29.78,NW,322,10.0,22.0,42,0.00,,,0.00,meteohub,2013-04-14 23:13:00,
2013-04-14 16:19:00,68.5,45.1,29.78,NW,311,6.0,22.0,43,0.00,,,0.00,meteohub,2013-04-14 23:19:00,
2013-04-14 16:24:00,68.7,45.3,29.78,West,281,6.0,19.0,43,0.00,,,0.00,meteohub,2013-04-14 23:24:00,
2013-04-14 16:29:00,68.5,45.7,29.78,West,265,12.0,17.0,44,0.00,,,0.00,meteohub,2013-04-14 23:29:00,
2013-04-14 16:34:00,67.8,45.1,29.78,WNW,294,5.0,23.0,44,0.00,,,0.00,meteohub,2013-04-14 23:34:00,
2013-04-14 16:39:00,67.8,45.7,29.78,WNW,292,5.0,23.0,45,0.00,,,0.00,meteohub,2013-04-14 23:39:00,
2013-04-14 16:44:00,67.6,45.5,29.78,WNW,288,8.0,23.0,45,0.00,,,0.00,meteohub,2013-04-14 23:44:00,
2013-04-14 16:49:00,67.8,45.7,29.78,West,281,7.0,22.0,45,0.00,,,0.00,meteohub,2013-04-14 23:49:00,
2013-04-14 16:54:00,67.5,45.3,29.78,WNW,284,4.0,22.0,45,0.00,,,0.00,meteohub,2013-04-14 23:54:00,
2013-04-14 16:59:00,67.8,45.7,29.78,WNW,286,6.0,20.0,45,0.00,,,0.00,meteohub,2013-04-14 23:59:00,
2013-04-14 17:04:00,68.2,45.5,29.78,West,281,11.0,20.0,44,0.00,,,0.00,meteohub,2013-04-15 00:04:00,
2013-04-14 17:09:00,67.1,45.0,29.78,WNW,298,7.0,14.0,45,0.00,,,0.00,meteohub,2013-04-15 00:09:00,
2013-04-14 17:14:00,66.6,44.6,29.78,WNW,284,18.0,23.0,45,0.00,,,0.00,meteohub,2013-04-15 00:14:00,
2013-04-14 17:19:00,66.6,45.1,29.78,WNW,286,14.0,22.0,46,0.00,,,0.00,meteohub,2013-04-15 00:19:00,
2013-04-14 17:25:00,66.4,45.0,29.78,WNW,303,13.0,24.0,46,0.00,,,0.00,meteohub,2013-04-15 00:25:00,
2013-04-14 17:30:00,65.7,45.0,29.78,West,277,9.0,24.0,47,0.00,,,0.00,meteohub,2013-04-15 00:30:00,
2013-04-14 17:35:00,65.5,45.3,29.79,West,275,12.0,24.0,48,0.00,,,0.00,meteohub,2013-04-15 00:35:00,
2013-04-14 17:40:00,65.3,45.1,29.79,West,279,9.0,26.0,48,0.00,,,0.00,meteohub,2013-04-15 00:40:00,
2013-04-14 17:45:00,65.7,45.5,29.79,WNW,282,4.0,22.0,48,0.00,,,0.00,meteohub,2013-04-15 00:45:00,
2013-04-14 17:51:00,65.5,45.3,29.80,West,263,14.0,23.0,48,0.00,,,0.00,meteohub,2013-04-15 00:51:00,
2013-04-14 17:56:00,64.6,45.0,29.80,NW,315,14.0,23.0,49,0.00,,,0.00,meteohub,2013-04-15 00:56:00,
2013-04-14 18:01:00,63.9,45.3,29.80,West,271,12.0,23.0,51,0.00,,,0.00,meteohub,2013-04-15 01:01:00,
2013-04-14 18:06:00,63.3,45.3,29.80,West,271,9.0,23.0,52,0.00,,,0.00,meteohub,2013-04-15 01:06:00,
2013-04-14 18:11:00,63.0,45.5,29.80,NNW,328,8.0,23.0,53,0.00,,,0.00,meteohub,2013-04-15 01:11:00,
2013-04-14 18:16:00,62.6,45.1,29.80,NW,313,27.0,27.0,53,0.00,,,0.00,meteohub,2013-04-15 01:16:00,
2013-04-14 18:21:00,62.4,45.5,29.80,NNW,331,12.0,27.0,54,0.00,,,0.00,meteohub,2013-04-15 01:21:00,
2013-04-14 18:26:00,62.2,45.3,29.80,NW,319,9.0,27.0,54,0.00,,,0.00,meteohub,2013-04-15 01:26:00,
2013-04-14 18:31:00,62.2,45.3,29.80,WNW,290,5.0,22.0,54,0.00,,,0.00,meteohub,2013-04-15 01:31:00,
2013-04-14 18:36:00,62.2,45.3,29.80,WNW,286,5.0,22.0,54,0.00,,,0.00,meteohub,2013-04-15 01:36:00,
2013-04-14 18:41:00,62.1,45.1,29.80,NW,322,4.0,17.0,54,0.00,,,0.00,meteohub,2013-04-15 01:41:00,
2013-04-14 18:46:00,61.9,45.1,29.80,NW,313,14.0,17.0,54,0.00,,,0.00,meteohub,2013-04-15 01:46:00,
2013-04-14 18:51:00,61.3,45.0,29.80,WNW,303,7.0,18.0,55,0.00,,,0.00,meteohub,2013-04-15 01:51:00,
2013-04-14 18:56:00,60.8,45.0,29.80,WNW,298,5.0,18.0,56,0.00,,,0.00,meteohub,2013-04-15 01:56:00,
2013-04-14 19:01:00,60.3,45.0,29.80,WNW,290,11.0,14.0,57,0.00,,,0.00,meteohub,2013-04-15 02:01:00,
2013-04-14 19:06:00,59.7,45.0,29.81,NW,317,9.0,19.0,58,0.00,,,0.00,meteohub,2013-04-15 02:06:00,
2013-04-14 19:11:00,59.4,45.0,29.81,NNW,332,10.0,19.0,59,0.00,,,0.00,meteohub,2013-04-15 02:11:00,
2013-04-14 19:16:00,58.8,45.0,29.81,WNW,288,6.0,15.0,60,0.00,,,0.00,meteohub,2013-04-15 02:16:00,
2013-04-14 19:21:00,58.6,44.8,29.81,West,269,4.0,12.0,60,0.00,,,0.00,meteohub,2013-04-15 02:21:00,
2013-04-14 19:27:00,58.3,45.0,29.81,West,271,5.0,12.0,61,0.00,,,0.00,meteohub,2013-04-15 02:27:00,
2013-04-14 19:32:00,57.7,44.8,29.81,West,280,4.0,11.0,62,0.00,,,0.00,meteohub,2013-04-15 02:32:00,
2013-04-14 19:37:00,57.6,44.6,29.81,WNW,299,9.0,10.0,62,0.00,,,0.00,meteohub,2013-04-15 02:37:00,
2013-04-14 19:42:00,57.0,44.6,29.81,NW,309,6.0,12.0,63,0.00,,,0.00,meteohub,2013-04-15 02:42:00,
2013-04-14 19:47:00,56.8,44.8,29.81,NNW,328,10.0,12.0,64,0.00,,,0.00,meteohub,2013-04-15 02:47:00,
2013-04-14 19:52:00,56.5,44.4,29.81,NW,313,3.0,14.0,64,0.00,,,0.00,meteohub,2013-04-15 02:52:00,
2013-04-14 19:57:00,56.1,44.1,29.81,West,265,2.0,14.0,64,0.00,,,0.00,meteohub,2013-04-15 02:57:00,
2013-04-14 20:02:00,55.9,44.4,29.81,NW,304,3.0,10.0,65,0.00,,,0.00,meteohub,2013-04-15 03:02:00,
2013-04-14 20:07:00,55.9,44.4,29.81,WNW,284,5.0,10.0,65,0.00,,,0.00,meteohub,2013-04-15 03:07:00,
2013-04-14 20:12:00,55.8,44.2,29.81,West,280,8.0,9.0,65,0.00,,,0.00,meteohub,2013-04-15 03:12:00,
2013-04-14 20:17:00,55.6,44.1,29.81,NW,313,10.0,10.0,65,0.00,,,0.00,meteohub,2013-04-15 03:17:00,
2013-04-14 20:22:00,55.6,44.4,29.81,NW,319,5.0,11.0,66,0.00,,,0.00,meteohub,2013-04-15 03:22:00,
2013-04-14 20:28:00,55.2,44.1,29.81,WNW,298,6.0,11.0,66,0.00,,,0.00,meteohub,2013-04-15 03:28:00,
2013-04-14 20:33:00,55.2,44.4,29.81,WNW,288,3.0,10.0,67,0.00,,,0.00,meteohub,2013-04-15 03:33:00,
2013-04-14 20:38:00,55.2,44.4,29.81,West,277,2.0,10.0,67,0.00,,,0.00,meteohub,2013-04-15 03:38:00,
2013-04-14 20:43:00,55.0,44.2,29.81,WNW,288,4.0,10.0,67,0.00,,,0.00,meteohub,2013-04-15 03:43:00,
2013-04-14 20:48:00,54.9,44.1,29.81,West,279,3.0,10.0,67,0.00,,,0.00,meteohub,2013-04-15 03:48:00,
2013-04-14 20:53:00,54.9,44.1,29.81,NNW,331,4.0,10.0,67,0.00,,,0.00,meteohub,2013-04-15 03:53:00,
2013-04-14 20:58:00,54.7,44.2,29.81,WNW,284,3.0,7.0,68,0.00,,,0.00,meteohub,2013-04-15 03:58:00,
2013-04-14 21:00:00,54.7,44.2,29.81,WNW,290,2.0,7.0,68,0.00,,,0.00,meteohub,2013-04-15 04:00:00,
2013-04-14 21:01:00,54.9,44.4,29.81,WNW,300,2.0,7.0,68,0.00,,,0.00,meteohub,2013-04-15 04:01:00,
2013-04-14 21:02:00,54.7,44.2,29.81,West,280,2.0,7.0,68,0.00,,,0.00,meteohub,2013-04-15 04:02:00,
2013-04-14 21:03:00,54.7,44.2,29.81,WNW,288,2.0,7.0,68,0.00,,,0.00,meteohub,2013-04-15 04:03:00,
2013-04-14 21:08:00,54.9,44.4,29.82,West,269,9.0,9.0,68,0.00,,,0.00,meteohub,2013-04-15 04:08:00,
2013-04-14 21:13:00,54.3,45.1,29.82,WSW,256,3.0,6.0,71,0.00,,,0.00,meteohub,2013-04-15 04:13:00,
2013-04-14 21:18:00,54.0,45.1,29.82,West,268,4.0,10.0,72,0.00,,,0.00,meteohub,2013-04-15 04:18:00,
2013-04-14 21:23:00,53.8,45.3,29.81,WSW,249,3.0,10.0,73,0.00,,,0.00,meteohub,2013-04-15 04:23:00,
2013-04-14 21:28:00,53.6,45.5,29.81,SW,225,2.0,9.0,74,0.00,,,0.00,meteohub,2013-04-15 04:28:00,
2013-04-14 21:33:00,53.4,45.3,29.81,WSW,253,1.0,9.0,74,0.00,,,0.00,meteohub,2013-04-15 04:33:00,
2013-04-14 21:39:00,53.1,45.0,29.82,WSW,252,5.0,7.0,74,0.00,,,0.00,meteohub,2013-04-15 04:39:00,
2013-04-14 21:44:00,52.9,45.1,29.82,West,265,4.0,7.0,75,0.00,,,0.00,meteohub,2013-04-15 04:44:00,
2013-04-14 21:49:00,52.9,45.1,29.82,WSW,249,3.0,7.0,75,0.00,,,0.00,meteohub,2013-04-15 04:49:00,
2013-04-14 21:54:00,52.7,45.3,29.82,SW,221,1.0,7.0,76,0.00,,,0.00,meteohub,2013-04-15 04:54:00,
2013-04-14 21:59:00,52.5,45.1,29.82,SW,223,2.0,7.0,76,0.00,,,0.00,meteohub,2013-04-15 04:59:00,
2013-04-14 22:04:00,52.5,45.1,29.82,WSW,250,2.0,6.0,76,0.00,,,0.00,meteohub,2013-04-15 05:04:00,
2013-04-14 22:09:00,52.3,45.0,29.82,WSW,252,3.0,6.0,76,0.00,,,0.00,meteohub,2013-04-15 05:09:00,
2013-04-14 22:14:00,52.2,45.1,29.82,West,260,3.0,6.0,77,0.00,,,0.00,meteohub,2013-04-15 05:14:00,
2013-04-14 22:19:00,51.8,45.1,29.82,SW,232,5.0,7.0,78,0.00,,,0.00,meteohub,2013-04-15 05:19:00,
2013-04-14 22:24:00,51.6,45.0,29.81,SW,229,0.0,6.0,78,0.00,,,0.00,meteohub,2013-04-15 05:24:00,
2013-04-14 22:29:00,51.6,45.3,29.81,SW,236,1.0,6.0,79,0.00,,,0.00,meteohub,2013-04-15 05:29:00,
2013-04-14 22:34:00,51.4,45.1,29.81,SSW,211,2.0,5.0,79,0.00,,,0.00,meteohub,2013-04-15 05:34:00,
2013-04-14 22:39:00,51.3,45.0,29.81,SSW,194,1.0,6.0,79,0.00,,,0.00,meteohub,2013-04-15 05:39:00,
2013-04-14 22:44:00,51.1,45.1,29.81,SE,140,3.0,7.0,80,0.00,,,0.00,meteohub,2013-04-15 05:44:00,
2013-04-14 22:49:00,51.1,45.1,29.81,West,264,4.0,5.0,80,0.00,,,0.00,meteohub,2013-04-15 05:49:00,
2013-04-14 22:54:00,51.1,45.1,29.81,WSW,238,2.0,7.0,80,0.00,,,0.00,meteohub,2013-04-15 05:54:00,
2013-04-14 23:00:00,50.9,45.0,29.81,SSW,205,1.0,7.0,80,0.00,,,0.00,meteohub,2013-04-15 06:00:00,
2013-04-14 23:05:00,50.7,45.1,29.81,WSW,254,5.0,7.0,81,0.00,,,0.00,meteohub,2013-04-15 06:05:00,
2013-04-14 23:10:00,50.7,45.1,29.81,WSW,246,3.0,6.0,81,0.00,,,0.00,meteohub,2013-04-15 06:10:00,
2013-04-14 23:15:00,50.4,45.1,29.81,WSW,252,2.0,7.0,82,0.00,,,0.00,meteohub,2013-04-15 06:15:00,
2013-04-14 23:20:00,50.2,45.0,29.80,West,269,2.0,7.0,82,0.00,,,0.00,meteohub,2013-04-15 06:20:00,
2013-04-14 23:25:00,49.8,44.8,29.80,East,98,1.0,10.0,83,0.00,,,0.00,meteohub,2013-04-15 06:25:00,
2013-04-14 23:30:00,49.5,44.8,29.80,SW,221,0.0,9.0,84,0.00,,,0.00,meteohub,2013-04-15 06:30:00,
2013-04-14 23:35:00,49.3,44.6,29.80,SSW,194,1.0,9.0,84,0.00,,,0.00,meteohub,2013-04-15 06:35:00,
2013-04-14 23:40:00,49.1,44.8,29.80,West,259,2.0,6.0,85,0.00,,,0.00,meteohub,2013-04-15 06:40:00,
2013-04-14 23:45:00,48.9,44.6,29.80,WSW,244,2.0,6.0,85,0.00,,,0.00,meteohub,2013-04-15 06:45:00,
2013-04-14 23:51:00,48.7,44.4,29.80,WNW,296,0.0,4.0,85,0.00,,,0.00,meteohub,2013-04-15 06:51:00,
2013-04-14 23:56:00,48.7,44.8,29.80,West,275,3.0,5.0,86,0.00,,,0.00,meteohub,2013-04-15 06:56:00,